createdAt,value
2022-09-20T00:01:33.267Z,10.04
2022-09-20T00:04:05.500Z,10.07
2022-09-20T00:06:34.845Z,9.94
2022-09-20T00:09:03.693Z,9.94
2022-09-20T00:11:33.653Z,9.97
2022-09-20T00:14:06.082Z,9.97
2022-09-20T00:16:39.100Z,9.86
2022-09-20T00:19:08.278Z,9.86
2022-09-20T00:21:38.008Z,9.89
2022-09-20T00:24:06.418Z,9.85
2022-09-20T00:26:35.264Z,9.81
2022-09-20T00:29:05.421Z,9.75
2022-09-20T00:31:33.839Z,9.83
2022-09-20T00:34:19.309Z,9.78
2022-09-20T00:36:47.372Z,9.72
2022-09-20T00:39:16.960Z,9.74
2022-09-20T00:41:45.454Z,9.72
2022-09-20T00:44:44.040Z,9.72
2022-09-20T00:47:18.493Z,9.76
2022-09-20T00:49:47.009Z,9.76
2022-09-20T00:52:15.948Z,9.81
2022-09-20T00:54:44.072Z,9.90
2022-09-20T00:57:12.364Z,9.83
2022-09-20T00:59:46.165Z,9.82
2022-09-20T01:02:18.265Z,9.87
2022-09-20T01:04:48.656Z,9.86
2022-09-20T01:07:22.317Z,9.97
2022-09-20T01:09:50.551Z,9.93
2022-09-20T01:12:21.635Z,9.90
2022-09-20T01:14:52.553Z,9.93
2022-09-20T01:17:25.373Z,9.90
2022-09-20T01:20:09.329Z,9.86
2022-09-20T01:22:46.431Z,9.89
2022-09-20T01:25:18.039Z,9.85
2022-09-20T01:27:49.777Z,9.90
2022-09-20T01:30:21.258Z,9.86
2022-09-20T01:33:03.170Z,9.74
2022-09-20T01:35:35.378Z,9.72
2022-09-20T01:38:15.824Z,9.71
2022-09-20T01:40:55.304Z,9.66
2022-09-20T01:43:31.903Z,9.72
2022-09-20T01:46:16.551Z,9.76
2022-09-20T01:48:44.719Z,9.63
2022-09-20T01:51:42.805Z,9.65
2022-09-20T01:54:49.015Z,9.71
2022-09-20T01:58:06.907Z,9.65
2022-09-20T02:00:49.667Z,9.62
2022-09-20T02:03:53.618Z,9.59
2022-09-20T02:06:49.968Z,9.55
2022-09-20T02:09:58.254Z,9.55
2022-09-20T02:12:52.756Z,9.59
2022-09-20T02:15:41.377Z,9.52
2022-09-20T02:18:25.913Z,9.48
2022-09-20T02:21:00.182Z,9.55
2022-09-20T02:23:42.520Z,9.47
2022-09-20T02:26:28.971Z,9.35
2022-09-20T02:29:03.613Z,9.32
2022-09-20T02:31:54.534Z,9.32
2022-09-20T02:34:47.524Z,9.31
2022-09-20T02:37:29.990Z,9.28
2022-09-20T02:40:17.777Z,9.31
2022-09-20T02:42:48.798Z,9.27
2022-09-20T02:45:23.963Z,9.34
2022-09-20T02:48:04.228Z,9.35
2022-09-20T02:50:41.048Z,9.32
2022-09-20T02:53:26.264Z,9.24
2022-09-20T02:56:03.446Z,9.27
2022-09-20T02:58:43.006Z,9.38
2022-09-20T03:01:21.519Z,9.32
2022-09-20T03:04:00.963Z,9.30
2022-09-20T03:06:39.179Z,9.28
2022-09-20T03:09:19.228Z,9.18
2022-09-20T03:11:59.453Z,9.16
2022-09-20T03:14:32.565Z,9.18
2022-09-20T03:17:07.982Z,9.13
2022-09-20T03:19:52.838Z,9.13
2022-09-20T03:22:32.831Z,9.08
2022-09-20T03:25:27.772Z,9.06
2022-09-20T03:28:04.149Z,9.06
2022-09-20T03:30:47.553Z,9.06
2022-09-20T03:33:24.580Z,9.16
2022-09-20T03:36:05.759Z,9.06
2022-09-20T03:38:49.555Z,9.08
2022-09-20T03:41:30.363Z,8.99
2022-09-20T03:44:17.399Z,8.93
2022-09-20T03:46:48.762Z,8.99
2022-09-20T03:49:51.263Z,8.91
2022-09-20T03:52:48.902Z,8.93
2022-09-20T03:55:45.251Z,8.82
2022-09-20T03:58:35.627Z,8.70
2022-09-20T04:01:21.352Z,8.55
2022-09-20T04:03:55.127Z,8.53
2022-09-20T04:06:46.267Z,8.49
2022-09-20T04:09:49.792Z,8.52
2022-09-20T04:12:28.938Z,8.62
2022-09-20T04:15:10.083Z,8.59
2022-09-20T04:17:46.835Z,8.52
2022-09-20T04:20:21.432Z,8.55
2022-09-20T04:22:52.476Z,8.46
2022-09-20T04:25:28.437Z,8.49
2022-09-20T04:27:58.231Z,8.59
2022-09-20T04:30:30.327Z,8.53
2022-09-20T04:33:04.242Z,8.55
2022-09-20T04:35:57.553Z,8.51
2022-09-20T04:38:28.292Z,8.56
2022-09-20T04:41:18.144Z,8.55
2022-09-20T04:44:22.404Z,8.58
2022-09-20T04:47:44.659Z,8.59
2022-09-20T04:50:47.616Z,8.66
2022-09-20T04:53:53.535Z,8.70
2022-09-20T04:56:38.467Z,8.76
2022-09-20T04:59:12.162Z,8.80
2022-09-20T05:02:19.183Z,8.84
2022-09-20T05:05:38.137Z,8.75
2022-09-20T05:08:40.743Z,8.86
2022-09-20T05:11:54.227Z,8.90
2022-09-20T05:14:55.478Z,8.93
2022-09-20T05:17:35.738Z,9.03
2022-09-20T05:20:28.265Z,9.04
2022-09-20T05:23:29.509Z,9.17
2022-09-20T05:26:07.262Z,9.27
2022-09-20T05:28:40.147Z,9.31
2022-09-20T05:31:15.696Z,9.41
2022-09-20T05:33:52.025Z,9.49
2022-09-20T05:36:33.774Z,9.51
2022-09-20T05:39:16.492Z,9.54
2022-09-20T05:41:52.056Z,9.61
2022-09-20T05:44:28.693Z,9.71
2022-09-20T05:47:07.176Z,9.76
2022-09-20T05:49:48.440Z,9.85
2022-09-20T05:52:32.813Z,9.90
2022-09-20T05:55:25.173Z,10.03
2022-09-20T05:58:17.159Z,10.10
2022-09-20T06:00:51.046Z,10.16
2022-09-20T06:03:30.515Z,10.20
2022-09-20T06:06:06.006Z,10.25
2022-09-20T06:09:01.499Z,10.33
2022-09-20T06:11:58.422Z,10.41
2022-09-20T06:14:40.328Z,10.45
2022-09-20T06:17:24.885Z,10.51
2022-09-20T06:20:07.788Z,10.61
2022-09-20T06:22:39.781Z,10.72
2022-09-20T06:25:17.095Z,10.73
2022-09-20T06:27:48.401Z,10.71
2022-09-20T06:30:19.751Z,10.68
2022-09-20T06:32:58.399Z,10.76
2022-09-20T06:35:34.778Z,10.89
2022-09-20T06:38:33.945Z,10.92
2022-09-20T06:41:19.476Z,10.99
2022-09-20T06:43:48.687Z,11.17
2022-09-20T06:46:17.830Z,11.15
2022-09-20T06:48:45.974Z,11.06
2022-09-20T06:51:15.529Z,11.09
2022-09-20T06:53:43.813Z,11.17
2022-09-20T06:56:19.780Z,11.17
2022-09-20T06:58:47.584Z,11.23
2022-09-20T07:01:22.982Z,11.34
2022-09-20T07:03:57.598Z,11.47
2022-09-20T07:06:28.909Z,11.58
2022-09-20T07:08:57.026Z,11.63
2022-09-20T07:11:25.565Z,11.70
2022-09-20T07:13:55.117Z,11.79
2022-09-20T07:16:23.690Z,11.55
2022-09-20T07:18:52.579Z,11.64
2022-09-20T07:21:22.360Z,11.68
2022-09-20T07:23:54.135Z,11.82
2022-09-20T07:26:24.400Z,11.92
2022-09-20T07:28:52.544Z,11.83
2022-09-20T07:31:23.904Z,12.13
2022-09-20T07:33:55.512Z,11.98
2022-09-20T07:36:24.621Z,12.19
2022-09-20T07:38:57.903Z,12.30
2022-09-20T07:41:32.577Z,12.15
2022-09-20T07:44:18.287Z,12.20
2022-09-20T07:46:49.120Z,12.18
2022-09-20T07:49:41.724Z,12.48
2022-09-20T07:52:11.363Z,12.36
2022-09-20T07:54:42.928Z,12.43
2022-09-20T07:57:10.999Z,12.56
2022-09-20T07:59:39.170Z,12.75
2022-09-20T08:02:07.714Z,12.75
2022-09-20T08:04:35.905Z,12.63
2022-09-20T08:07:04.019Z,12.89
2022-09-20T08:09:32.155Z,12.85
2022-09-20T08:14:05.391Z,12.77
2022-09-20T08:14:50.667Z,12.74
2022-09-20T08:17:20.940Z,12.61
2022-09-20T08:19:49.161Z,12.33
2022-09-20T08:22:17.203Z,12.50
2022-09-20T08:24:45.445Z,12.74
2022-09-20T08:27:14.902Z,13.11
2022-09-20T08:29:43.143Z,13.02
2022-09-20T08:32:11.449Z,13.04
2022-09-20T08:34:41.809Z,13.15
2022-09-20T08:37:09.916Z,13.22
2022-09-20T08:42:34.374Z,13.84
2022-09-20T08:45:07.980Z,13.54
2022-09-20T08:47:39.878Z,13.25
2022-09-20T08:50:17.281Z,13.42
2022-09-20T08:52:47.902Z,13.38
2022-09-20T08:55:19.951Z,13.63
2022-09-20T08:57:53.070Z,13.64
2022-09-20T09:00:27.554Z,13.30
2022-09-20T09:02:59.801Z,13.46
2022-09-20T09:05:35.681Z,13.44
2022-09-20T09:08:06.804Z,13.54
2022-09-20T09:10:45.626Z,13.35
2022-09-20T09:13:23.769Z,13.57
2022-09-20T09:15:57.356Z,13.59
2022-09-20T09:18:34.080Z,13.44
2022-09-20T09:21:04.299Z,13.56
2022-09-20T09:23:41.510Z,13.35
2022-09-20T09:26:17.460Z,13.44
2022-09-20T09:28:46.850Z,13.60
2022-09-20T09:31:25.791Z,13.50
2022-09-20T09:33:54.051Z,14.05
2022-09-20T09:36:25.459Z,14.15
2022-09-20T09:39:17.900Z,14.43
2022-09-20T09:41:46.581Z,14.66
2022-09-20T09:44:26.988Z,15.22
2022-09-20T09:46:59.447Z,14.69
2022-09-20T09:49:36.397Z,14.49
2022-09-20T09:52:08.375Z,14.94
2022-09-20T09:54:40.962Z,15.24
2022-09-20T09:57:22.505Z,15.42
2022-09-20T10:00:10.656Z,15.05
2022-09-20T10:03:11.519Z,15.08
2022-09-20T10:05:45.266Z,14.94
2022-09-20T10:08:26.282Z,14.80
2022-09-20T10:11:07.192Z,14.62
2022-09-20T10:13:44.538Z,15.20
2022-09-20T10:16:33.710Z,15.39
2022-09-20T10:19:09.949Z,15.55
2022-09-20T10:21:49.334Z,15.22
2022-09-20T10:24:30.949Z,15.17
2022-09-20T10:27:19.397Z,14.77
2022-09-20T10:30:03.518Z,14.67
2022-09-20T10:32:50.051Z,14.88
2022-09-20T10:35:26.351Z,14.60
2022-09-20T10:38:20.242Z,14.67
2022-09-20T10:41:29.972Z,15.08
2022-09-20T10:44:28.540Z,15.38
2022-09-20T10:47:04.416Z,15.90
2022-09-20T10:49:37.560Z,15.91
2022-09-20T10:52:24.934Z,16.22
2022-09-20T10:55:13.574Z,16.49
2022-09-20T10:58:01.961Z,16.71
2022-09-20T11:00:45.302Z,17.00
2022-09-20T11:03:31.755Z,17.45
2022-09-20T11:06:14.548Z,16.58
2022-09-20T11:08:45.037Z,16.93
2022-09-20T11:11:19.853Z,16.04
2022-09-20T11:13:58.093Z,15.60
2022-09-20T11:16:29.550Z,15.71
2022-09-20T11:19:02.448Z,15.67
2022-09-20T11:21:38.500Z,15.71
2022-09-20T11:24:16.821Z,15.79
2022-09-20T11:26:49.297Z,15.15
2022-09-20T11:29:25.536Z,15.43
2022-09-20T11:31:57.145Z,15.41
2022-09-20T11:34:37.757Z,15.08
2022-09-20T11:37:09.838Z,15.49
2022-09-20T11:39:46.384Z,15.43
2022-09-20T11:42:19.223Z,15.60
2022-09-20T11:44:48.208Z,15.86
2022-09-20T11:47:42.825Z,15.69
2022-09-20T11:50:52.868Z,16.04
2022-09-20T11:53:36.982Z,15.83
2022-09-20T11:56:13.997Z,16.22
2022-09-20T11:58:48.902Z,16.51
2022-09-20T12:01:28.281Z,16.65
2022-09-20T12:04:30.603Z,16.32
2022-09-20T12:07:03.511Z,15.90
2022-09-20T12:09:41.150Z,15.87
2022-09-20T12:12:20.720Z,15.58
2022-09-20T12:14:55.791Z,15.41
2022-09-20T12:18:05.491Z,15.22
2022-09-20T12:20:59.864Z,15.28
2022-09-20T12:24:02.791Z,14.74
2022-09-20T12:26:42.757Z,14.26
2022-09-20T12:29:55.425Z,14.37
2022-09-20T12:32:52.114Z,14.18
2022-09-20T12:35:39.145Z,13.95
2022-09-20T12:38:19.687Z,14.24
2022-09-20T12:41:00.463Z,14.18
2022-09-20T12:43:34.906Z,14.02
2022-09-20T12:46:07.504Z,14.11
2022-09-20T12:48:38.970Z,14.05
2022-09-20T12:51:37.962Z,14.25
2022-09-20T12:54:08.838Z,14.24
2022-09-20T12:56:38.964Z,14.37
2022-09-20T12:59:25.596Z,14.15
2022-09-20T13:01:53.993Z,13.98
2022-09-20T13:04:56.452Z,14.33
2022-09-20T13:07:52.979Z,14.45
2022-09-20T13:10:29.361Z,15.10
2022-09-20T13:13:04.458Z,15.45
2022-09-20T13:15:34.970Z,15.60
2022-09-20T13:18:03.972Z,15.11
2022-09-20T13:20:34.976Z,15.00
2022-09-20T13:23:08.235Z,14.93
2022-09-20T13:25:40.226Z,14.87
2022-09-20T13:28:21.103Z,14.46
2022-09-20T13:30:51.031Z,14.43
2022-09-20T13:33:24.199Z,14.52
2022-09-20T13:35:57.247Z,14.32
2022-09-20T13:38:30.042Z,14.47
2022-09-20T13:41:06.261Z,14.53
2022-09-20T13:43:43.108Z,15.22
2022-09-20T13:46:16.592Z,15.50
2022-09-20T13:48:47.673Z,16.03
2022-09-20T13:51:20.260Z,16.13
2022-09-20T13:53:48.910Z,16.32
2022-09-20T13:56:22.212Z,16.26
2022-09-20T13:58:51.507Z,16.11
2022-09-20T14:01:29.673Z,16.13
2022-09-20T14:04:04.813Z,15.62
2022-09-20T14:06:33.588Z,15.53
2022-09-20T14:09:11.037Z,16.15
2022-09-20T14:11:41.052Z,16.21
2022-09-20T14:14:13.458Z,16.06
2022-09-20T14:16:46.927Z,15.86
2022-09-20T14:19:17.995Z,15.83
2022-09-20T14:21:46.598Z,15.48
2022-09-20T14:24:32.590Z,15.39
2022-09-20T14:27:17.746Z,15.18
2022-09-20T14:29:49.198Z,14.98
2022-09-20T14:32:37.312Z,15.01
2022-09-20T14:35:15.276Z,14.80
2022-09-20T14:37:46.646Z,14.73
2022-09-20T14:40:23.040Z,14.70
2022-09-20T14:42:58.265Z,14.56
2022-09-20T14:45:30.507Z,14.57
2022-09-20T14:48:10.828Z,14.69
2022-09-20T14:50:43.440Z,14.60
2022-09-20T14:53:27.578Z,14.26
2022-09-20T14:56:01.702Z,14.08
2022-09-20T14:58:31.086Z,13.70
2022-09-20T15:01:05.196Z,13.70
2022-09-20T15:03:39.149Z,13.69
2022-09-20T15:06:12.018Z,13.40
2022-09-20T15:08:46.142Z,13.26
2022-09-20T15:11:16.141Z,13.04
2022-09-20T15:13:44.473Z,12.84
2022-09-20T15:16:13.939Z,12.78
2022-09-20T15:18:44.809Z,12.65
2022-09-20T15:21:13.306Z,12.80
2022-09-20T15:23:42.100Z,12.58
2022-09-20T15:26:13.385Z,12.51
2022-09-20T15:28:42.228Z,12.58
2022-09-20T15:31:11.578Z,12.64
2022-09-20T15:33:39.984Z,12.74
2022-09-20T15:36:11.626Z,12.69
2022-09-20T15:38:41.739Z,12.68
2022-09-20T15:41:10.995Z,12.50
2022-09-20T15:43:43.396Z,12.51
2022-09-20T15:46:19.754Z,12.47
2022-09-20T15:48:48.701Z,12.23
2022-09-20T15:51:18.595Z,12.43
2022-09-20T15:53:49.544Z,12.29
2022-09-20T15:56:21.300Z,12.25
2022-09-20T15:58:53.762Z,12.03
2022-09-20T16:01:23.367Z,12.29
2022-09-20T16:03:51.669Z,12.43
2022-09-20T16:06:21.714Z,12.46
2022-09-20T16:08:50.008Z,12.56
2022-09-20T16:11:22.858Z,12.50
2022-09-20T16:13:54.276Z,12.47
2022-09-20T16:16:26.889Z,12.34
2022-09-20T16:19:13.398Z,12.29
2022-09-20T16:21:47.035Z,12.28
2022-09-20T16:24:18.671Z,12.26
2022-09-20T16:26:49.163Z,12.10
2022-09-20T16:29:18.721Z,12.09
2022-09-20T16:31:50.899Z,12.03
2022-09-20T16:34:29.811Z,11.92
2022-09-20T16:37:00.737Z,11.91
2022-09-20T16:39:30.501Z,11.91
2022-09-20T16:42:06.954Z,11.91
2022-09-20T16:44:37.136Z,11.88
2022-09-20T16:47:08.142Z,11.89
2022-09-20T16:49:36.971Z,11.85
2022-09-20T16:52:07.237Z,11.70
2022-09-20T16:54:37.868Z,11.65
2022-09-20T16:57:06.196Z,11.71
2022-09-20T16:59:34.462Z,11.65
2022-09-20T17:02:03.011Z,11.55
2022-09-20T17:04:31.606Z,11.54
2022-09-20T17:07:01.938Z,11.37
2022-09-20T17:09:31.692Z,11.36
2022-09-20T17:12:00.321Z,11.38
2022-09-20T17:14:28.672Z,11.26
2022-09-20T17:16:57.827Z,11.36
2022-09-20T17:19:26.790Z,11.45
2022-09-20T17:21:55.185Z,11.43
2022-09-20T17:24:25.256Z,11.24
2022-09-20T17:26:55.066Z,11.31
2022-09-20T17:29:24.326Z,11.06
2022-09-20T17:31:56.518Z,11.07
2022-09-20T17:34:26.595Z,11.05
2022-09-20T17:36:55.574Z,11.02
2022-09-20T17:39:24.472Z,11.02
2022-09-20T17:41:54.869Z,11.03
2022-09-20T17:44:25.241Z,10.99
2022-09-20T17:46:54.289Z,11.06
2022-09-20T17:49:24.309Z,10.96
2022-09-20T17:51:56.736Z,10.89
2022-09-20T17:54:25.397Z,10.95
2022-09-20T17:56:56.208Z,10.88
2022-09-20T17:59:25.492Z,10.83
2022-09-20T18:01:54.451Z,10.85
2022-09-20T18:04:24.670Z,10.79
2022-09-20T18:06:55.117Z,10.80
2022-09-20T18:09:27.269Z,10.89
2022-09-20T18:11:57.814Z,10.83
2022-09-20T18:14:28.024Z,10.92
2022-09-20T18:17:01.354Z,10.96
2022-09-20T18:19:33.111Z,10.88
2022-09-20T18:22:02.261Z,10.79
2022-09-20T18:24:31.110Z,10.75
2022-09-20T18:27:00.985Z,10.76
2022-09-20T18:29:31.844Z,10.79
2022-09-20T18:32:01.046Z,10.68
2022-09-20T18:34:31.133Z,10.61
2022-09-20T18:37:01.429Z,10.54
2022-09-20T18:39:32.580Z,10.57
2022-09-20T18:42:02.695Z,10.52
2022-09-20T18:44:34.326Z,10.51
2022-09-20T18:47:03.536Z,10.40
2022-09-20T18:49:36.004Z,10.25
2022-09-20T18:52:14.184Z,10.20
2022-09-20T18:54:42.893Z,10.06
2022-09-20T18:57:13.145Z,10.02
2022-09-20T18:59:53.409Z,10.10
2022-09-20T19:02:40.005Z,10.00
2022-09-20T19:05:23.193Z,9.97
2022-09-20T19:08:03.817Z,9.94
2022-09-20T19:10:42.432Z,9.90
2022-09-20T19:13:24.483Z,9.97
2022-09-20T19:16:13.069Z,10.02
2022-09-20T19:19:09.509Z,9.94
2022-09-20T19:21:46.872Z,9.92
2022-09-20T19:24:29.141Z,9.87
2022-09-20T19:26:57.732Z,9.92
2022-09-20T19:29:32.007Z,9.92
2022-09-20T19:32:01.208Z,10.02
2022-09-20T19:34:32.288Z,9.96
2022-09-20T19:37:18.926Z,9.83
2022-09-20T19:40:12.204Z,9.78
2022-09-20T19:42:53.121Z,9.75
2022-09-20T19:45:33.022Z,9.71
2022-09-20T19:48:07.799Z,9.75
2022-09-20T19:50:45.459Z,9.72
2022-09-20T19:53:14.915Z,9.72
2022-09-20T19:55:48.119Z,9.59
2022-09-20T19:58:17.176Z,9.61
2022-09-20T20:00:48.317Z,9.54
2022-09-20T20:03:18.021Z,9.47
2022-09-20T20:05:52.707Z,9.61
2022-09-20T20:08:25.363Z,9.74
2022-09-20T20:11:03.269Z,9.81
2022-09-20T20:14:02.865Z,9.76
2022-09-20T20:16:37.897Z,9.69
2022-09-20T20:19:27.864Z,9.71
2022-09-20T20:22:00.244Z,9.79
2022-09-20T20:24:34.161Z,9.69
2022-09-20T20:27:02.696Z,9.51
2022-09-20T20:29:31.326Z,9.54
2022-09-20T20:32:00.952Z,9.45
2022-09-20T20:34:30.364Z,9.18
2022-09-20T20:37:01.055Z,9.17
2022-09-20T20:39:31.726Z,9.17
2022-09-20T20:42:03.641Z,9.20
2022-09-20T20:44:35.180Z,9.24
2022-09-20T20:47:05.200Z,9.34
2022-09-20T20:49:33.955Z,9.35
2022-09-20T20:52:04.881Z,9.35
2022-09-20T20:54:33.896Z,9.45
2022-09-20T20:57:03.481Z,9.39
2022-09-20T20:59:31.652Z,9.45
2022-09-20T21:02:03.398Z,9.45
2022-09-20T21:04:37.038Z,9.45
2022-09-20T21:07:05.743Z,9.48
2022-09-20T21:09:34.113Z,9.55
2022-09-20T21:12:03.343Z,9.48
2022-09-20T21:14:34.839Z,9.61
2022-09-20T21:17:03.046Z,9.54
2022-09-20T21:19:31.365Z,9.54
2022-09-20T21:22:02.045Z,9.56
2022-09-20T21:24:30.261Z,9.58
2022-09-20T21:26:58.411Z,9.61
2022-09-20T21:29:30.779Z,9.63
2022-09-20T21:31:58.867Z,9.58
2022-09-20T21:34:27.008Z,9.58
2022-09-20T21:36:55.084Z,9.59
2022-09-20T21:39:24.689Z,9.61
2022-09-20T21:41:54.805Z,9.54
2022-09-20T21:44:22.973Z,9.51
2022-09-20T21:46:51.067Z,9.45
2022-09-20T21:49:19.317Z,9.47
2022-09-20T21:51:47.473Z,9.27
2022-09-20T21:54:15.661Z,9.24
2022-09-20T21:56:45.238Z,9.17
2022-09-20T21:59:13.605Z,9.17
2022-09-20T22:01:41.844Z,9.17
2022-09-20T22:04:11.606Z,9.20
2022-09-20T22:06:41.366Z,9.20
2022-09-20T22:09:11.556Z,9.31
2022-09-20T22:11:41.662Z,9.27
2022-09-20T22:14:13.063Z,9.38
2022-09-20T22:16:42.708Z,9.39
2022-09-20T22:19:13.327Z,9.54
2022-09-20T22:21:43.470Z,9.56
2022-09-20T22:24:13.678Z,9.47
2022-09-20T22:26:44.167Z,9.49
2022-09-20T22:29:14.063Z,9.54
2022-09-20T22:31:45.635Z,9.62
2022-09-20T22:34:16.056Z,9.66
2022-09-20T22:36:44.647Z,9.52
2022-09-20T22:39:13.535Z,9.39
2022-09-20T22:41:42.874Z,9.30
2022-09-20T22:44:11.823Z,9.16
2022-09-20T22:46:41.589Z,9.03
2022-09-20T22:49:10.931Z,9.16
2022-09-20T22:51:39.502Z,9.23
2022-09-20T22:54:09.597Z,9.27
2022-09-20T22:56:39.438Z,9.17
2022-09-20T22:59:09.376Z,9.21
2022-09-20T23:01:39.716Z,9.26
2022-09-20T23:04:11.287Z,9.18
2022-09-20T23:06:41.278Z,9.07
2022-09-20T23:09:11.683Z,8.86
2022-09-20T23:11:42.070Z,8.76
2022-09-20T23:14:12.958Z,8.72
2022-09-20T23:16:41.571Z,8.70
2022-09-20T23:19:12.256Z,8.70
2022-09-20T23:21:41.883Z,8.66
2022-09-20T23:24:12.062Z,8.38
2022-09-20T23:26:41.697Z,8.14
2022-09-20T23:29:11.480Z,8.01
2022-09-20T23:31:45.551Z,7.98
2022-09-20T23:34:16.507Z,8.03
2022-09-20T23:36:45.455Z,7.93
2022-09-20T23:39:14.228Z,8.03
2022-09-20T23:41:45.780Z,8.20
2022-09-20T23:44:16.621Z,8.41
2022-09-20T23:46:44.709Z,8.42
2022-09-20T23:49:12.934Z,8.45
2022-09-20T23:51:42.407Z,8.48
2022-09-20T23:54:10.543Z,8.46
2022-09-20T23:56:38.859Z,8.51
2022-09-20T23:59:06.871Z,8.55
